Time;durP1;ratioP1;P1;durP2;ratioP2;P2;SDS_P1;SDS_P2;PMS_P1;PMS_P2;Temp;Humidity;BMP_temperature;BMP_pressure;BME280_temperature;BME280_humidity;BME280_pressure;Samples;Min_cycle;Max_cycle;Signal;HPM_P1;HPM_P2
2023/04/04 00:00:08;;;;;;;4.93;4.00;;;;;;;0.92;80.23;102774.44;6237693;23;20083;-88
2023/04/04 00:02:33;;;;;;;5.53;4.18;;;;;;;0.88;80.42;102763.84;6251031;23;20003;-88
2023/04/04 00:04:58;;;;;;;7.05;4.03;;;;;;;0.80;80.31;102757.59;6260721;23;20209;-88
2023/04/04 00:07:24;;;;;;;7.13;4.38;;;;;;;0.83;80.29;102768.13;6258157;23;20003;-87
2023/04/04 00:09:50;;;;;;;6.50;4.40;;;;;;;0.67;80.95;102761.66;6244272;23;20008;-87
2023/04/04 00:12:16;;;;;;;4.93;3.75;;;;;;;0.72;80.22;102760.94;6239108;23;20069;-87
2023/04/04 00:14:41;;;;;;;7.00;3.95;;;;;;;0.70;81.84;102761.75;6239213;23;20075;-88
2023/04/04 00:17:07;;;;;;;6.03;3.65;;;;;;;0.65;82.20;102766.00;6239762;23;20039;-88
2023/04/04 00:19:32;;;;;;;5.40;3.90;;;;;;;0.64;81.79;102769.50;6240028;23;20000;-88
2023/04/04 00:21:58;;;;;;;4.13;3.72;;;;;;;0.65;81.08;102773.88;6237191;23;20008;-88
2023/04/04 00:24:23;;;;;;;6.30;4.28;;;;;;;0.64;81.91;102769.50;6239437;23;20069;-88
2023/04/04 00:26:49;;;;;;;5.15;3.83;;;;;;;0.53;79.66;102779.75;6239102;23;20337;-86
2023/04/04 00:29:14;;;;;;;5.45;3.97;;;;;;;0.48;79.91;102782.25;6238971;23;20008;-85
2023/04/04 00:31:40;;;;;;;6.07;3.95;;;;;;;0.41;79.48;102776.84;6236525;23;20015;-87
2023/04/04 00:34:05;;;;;;;6.45;4.18;;;;;;;0.33;79.71;102766.19;6241129;23;20000;-87
2023/04/04 00:36:31;;;;;;;7.07;3.88;;;;;;;0.40;80.05;102773.34;6240141;23;20012;-88
2023/04/04 00:38:56;;;;;;;7.57;4.15;;;;;;;0.33;79.83;102770.56;6239164;23;20087;-89
2023/04/04 00:41:22;;;;;;;7.13;4.20;;;;;;;0.28;80.15;102773.06;6238541;23;20000;-88
2023/04/04 00:43:48;;;;;;;5.50;3.97;;;;;;;0.32;81.23;102777.53;6237662;23;20054;-87
2023/04/04 00:46:16;;;;;;;5.47;4.38;;;;;;;0.30;81.02;102779.25;6238467;23;20564;-87
2023/04/04 00:48:42;;;;;;;5.15;3.85;;;;;;;0.21;80.24;102779.94;6238458;22;20069;-88
2023/04/04 00:51:07;;;;;;;4.95;4.18;;;;;;;0.22;80.45;102784.31;6236336;23;20012;-87
2023/04/04 00:53:33;;;;;;;5.50;4.00;;;;;;;0.20;80.94;102779.88;6238809;23;20003;-87
2023/04/04 00:55:58;;;;;;;5.47;4.07;;;;;;;0.08;80.75;102776.97;6239553;23;20016;-89
2023/04/04 00:58:25;;;;;;;5.10;4.00;;;;;;;0.15;82.65;102786.75;6240907;23;20610;-86
2023/04/04 01:00:50;;;;;;;6.05;3.95;;;;;;;0.15;81.82;102786.75;6262232;23;20028;-87
2023/04/04 01:03:17;;;;;;;5.78;4.10;;;;;;;0.11;81.74;102787.53;6267159;22;20003;-88
2023/04/04 01:05:42;;;;;;;7.90;4.63;;;;;;;0.02;81.52;102779.47;6266251;22;19988;-87
2023/04/04 01:08:08;;;;;;;5.65;4.00;;;;;;;0.04;81.72;102777.75;6267086;22;20023;-87
2023/04/04 01:10:33;;;;;;;5.82;4.10;;;;;;;-0.01;81.41;102775.03;6264563;22;20153;-87
2023/04/04 01:12:59;;;;;;;7.05;4.38;;;;;;;0.02;81.90;102776.84;6262116;23;20026;-86
2023/04/04 01:15:25;;;;;;;5.90;4.28;;;;;;;-0.01;83.44;102778.53;6261525;23;20040;-87
2023/04/04 01:17:54;;;;;;;5.65;4.28;;;;;;;-0.13;82.18;102780.84;6231268;23;20007;-87
2023/04/04 01:20:25;;;;;;;5.43;3.72;;;;;;;-0.13;83.54;102774.72;6264902;22;20016;-87
2023/04/04 01:22:52;;;;;;;6.05;4.10;;;;;;;-0.14;83.37;102767.72;6267842;23;20000;-85
2023/04/04 01:25:20;;;;;;;7.10;4.43;;;;;;;-0.13;83.85;102773.00;6240419;23;20027;-84
2023/04/04 01:27:45;;;;;;;6.55;4.28;;;;;;;-0.14;84.10;102762.50;6267446;23;20004;-86
2023/04/04 01:30:12;;;;;;;8.55;4.43;;;;;;;-0.18;83.31;102753.69;6252318;23;20050;-87
2023/04/04 01:32:51;;;;;;;5.65;4.60;;;;;;;-0.19;84.67;102758.91;6250906;23;20004;-87
2023/04/04 01:35:37;;;;;;;6.45;4.38;;;;;;;-0.20;83.64;102757.13;6242267;23;20008;-87
2023/04/04 01:38:17;;;;;;;6.13;4.60;;;;;;;-0.25;84.01;102757.03;6242856;23;19996;-87
2023/04/04 01:40:53;;;;;;;6.00;4.40;;;;;;;-0.20;83.59;102750.16;6213880;23;20333;-88
2023/04/04 01:43:18;;;;;;;7.03;4.95;;;;;;;-0.28;85.38;102749.09;6240575;23;20004;-87
2023/04/04 01:45:45;;;;;;;7.13;4.30;;;;;;;-0.28;86.24;102746.47;6238453;23;20022;-87
2023/04/04 01:48:10;;;;;;;6.75;4.72;;;;;;;-0.33;85.60;102745.47;6238791;22;20117;-87
2023/04/04 01:50:36;;;;;;;6.70;4.88;;;;;;;-0.33;84.82;102746.38;6210940;23;20425;-88
2023/04/04 01:53:01;;;;;;;6.85;4.72;;;;;;;-0.36;86.31;102743.66;6239207;23;20039;-88
2023/04/04 01:55:26;;;;;;;9.35;4.72;;;;;;;-0.38;87.33;102737.50;6237505;23;20027;-87
2023/04/04 01:57:52;;;;;;;8.95;4.80;;;;;;;-0.40;86.86;102739.19;6237873;23;20359;-88
2023/04/04 02:00:18;;;;;;;6.55;4.80;;;;;;;-0.42;87.29;102746.09;6237566;23;20008;-86
2023/04/04 02:02:43;;;;;;;8.20;4.85;;;;;;;-0.41;87.78;102752.25;6238102;23;20008;-88
2023/04/04 02:05:09;;;;;;;6.78;4.53;;;;;;;-0.46;88.23;102751.22;6237872;23;20004;-87
2023/04/04 02:07:34;;;;;;;7.40;4.47;;;;;;;-0.50;88.40;102747.69;6238249;23;20004;-87
2023/04/04 02:10:00;;;;;;;5.38;4.47;;;;;;;-0.55;88.01;102746.66;6237688;23;20034;-87
2023/04/04 02:12:25;;;;;;;6.00;4.50;;;;;;;-0.54;88.79;102746.72;6237906;23;20019;-86
2023/04/04 02:14:51;;;;;;;5.47;4.72;;;;;;;-0.55;89.30;102749.28;6236224;23;20014;-84
2023/04/04 02:17:17;;;;;;;6.63;4.70;;;;;;;-0.62;89.48;102737.78;6237861;23;20004;-88
2023/04/04 02:19:42;;;;;;;7.50;4.47;;;;;;;-0.67;90.11;102738.50;6239480;23;20008;-89
2023/04/04 02:22:07;;;;;;;6.03;4.25;;;;;;;-0.69;90.03;102741.09;6255902;23;19988;-87
2023/04/04 02:24:33;;;;;;;6.68;4.93;;;;;;;-0.73;89.98;102739.22;6254123;23;20004;-87
2023/04/04 02:26:58;;;;;;;6.65;4.80;;;;;;;-0.75;90.33;102748.78;6227917;23;20341;-88
2023/04/04 02:29:23;;;;;;;7.90;5.00;;;;;;;-0.77;90.18;102753.06;6238952;23;20043;-86
2023/04/04 02:31:48;;;;;;;5.78;4.85;;;;;;;-0.79;90.71;102754.78;6210073;23;20091;-86
2023/04/04 02:34:14;;;;;;;7.35;5.30;;;;;;;-0.80;90.47;102758.22;6239630;23;20058;-87
2023/04/04 02:36:39;;;;;;;5.88;4.45;;;;;;;-0.80;90.86;102751.25;6212832;23;20508;-87
2023/04/04 02:39:04;;;;;;;8.90;5.30;;;;;;;-0.83;91.11;102758.16;6239517;23;20038;-87
2023/04/04 02:41:30;;;;;;;6.38;4.90;;;;;;;-0.95;91.83;102749.97;6238921;23;20008;-86
2023/04/04 02:43:55;;;;;;;7.13;4.97;;;;;;;-0.99;92.38;102748.13;6237813;23;20027;-88
2023/04/04 02:46:20;;;;;;;6.18;5.20;;;;;;;-1.02;91.66;102756.75;6237503;23;20017;-87
2023/04/04 02:48:46;;;;;;;11.35;5.00;;;;;;;-0.99;90.89;102751.63;6211545;23;20015;-86
2023/04/04 02:51:11;;;;;;;7.28;4.95;;;;;;;-1.12;91.67;102744.28;6237024;23;20011;-87
2023/04/04 02:53:36;;;;;;;7.60;5.00;;;;;;;-1.14;91.62;102754.69;6237609;23;20015;-87
2023/04/04 02:56:02;;;;;;;6.18;5.30;;;;;;;-1.11;91.13;102762.63;6236805;23;20031;-88
2023/04/04 02:58:30;;;;;;;6.22;4.88;;;;;;;-1.14;91.02;102756.41;6237847;23;20015;-86
2023/04/04 03:00:56;;;;;;;7.55;5.30;;;;;;;-1.20;90.89;102745.81;6237639;23;20035;-86
2023/04/04 03:03:21;;;;;;;7.45;5.15;;;;;;;-1.26;91.34;102743.88;6238314;23;20008;-87
2023/04/04 03:05:48;;;;;;;9.50;5.85;;;;;;;-1.19;92.32;102750.19;6237926;23;20512;-87
2023/04/04 03:08:13;;;;;;;6.65;4.95;;;;;;;-1.20;92.12;102751.91;6243512;23;20007;-87
2023/04/04 03:10:39;;;;;;;9.80;5.93;;;;;;;-1.21;93.21;102738.78;6257111;23;20061;-84
2023/04/04 03:13:04;;;;;;;6.57;4.97;;;;;;;-1.26;92.77;102751.72;6251601;23;20425;-86
2023/04/04 03:15:30;;;;;;;6.88;5.25;;;;;;;-1.24;93.44;102760.50;6246955;23;20275;-87
2023/04/04 03:17:55;;;;;;;9.00;5.40;;;;;;;-1.27;93.52;102750.84;6249142;23;20015;-87
2023/04/04 03:20:21;;;;;;;7.00;5.60;;;;;;;-1.21;93.33;102755.38;6236687;23;20038;-86
2023/04/04 03:22:46;;;;;;;7.18;5.40;;;;;;;-1.28;93.46;102751.69;6267452;22;19984;-87
2023/04/04 03:25:12;;;;;;;7.07;5.55;;;;;;;-1.36;93.92;102745.38;6267117;22;20006;-85
2023/04/04 03:27:38;;;;;;;8.25;5.15;;;;;;;-1.34;92.61;102754.16;6239292;23;20003;-87
2023/04/04 03:30:05;;;;;;;8.35;5.90;;;;;;;-1.37;93.83;102753.16;6265344;22;20004;-86
2023/04/04 03:32:31;;;;;;;9.13;5.15;;;;;;;-1.36;93.68;102757.53;6263478;23;20008;-87
2023/04/04 03:34:56;;;;;;;7.65;5.15;;;;;;;-1.42;94.21;102754.75;6243604;23;20004;-86
2023/04/04 03:37:22;;;;;;;8.50;5.88;;;;;;;-1.43;94.45;102756.47;6242657;23;20020;-87
2023/04/04 03:39:47;;;;;;;7.85;5.53;;;;;;;-1.44;94.01;102761.66;6242302;23;20004;-87
2023/04/04 03:42:12;;;;;;;7.57;5.40;;;;;;;-1.47;93.84;102740.66;6243679;23;20008;-88
2023/04/04 03:44:41;;;;;;;6.82;5.32;;;;;;;-1.52;94.24;102751.88;6214352;23;20329;-88
2023/04/04 03:47:07;;;;;;;6.47;5.50;;;;;;;-1.46;95.42;102739.81;6241851;23;20054;-87
2023/04/04 03:49:34;;;;;;;7.85;5.50;;;;;;;-1.51;94.91;102740.56;6213158;23;20019;-86
2023/04/04 03:52:01;;;;;;;8.38;5.90;;;;;;;-1.50;95.78;102731.03;6238049;23;20016;-86
2023/04/04 03:54:27;;;;;;;8.68;5.43;;;;;;;-1.52;95.83;102741.41;6235746;23;20000;-86
2023/04/04 03:56:53;;;;;;;7.15;5.90;;;;;;;-1.53;95.40;102731.81;6210200;23;20016;-86
2023/04/04 03:59:18;;;;;;;7.65;5.20;;;;;;;-1.56;95.71;102736.06;6209889;23;20732;-88
2023/04/04 04:01:44;;;;;;;10.27;6.20;;;;;;;-1.57;95.75;102736.91;6233781;23;20004;-86
2023/04/04 04:04:09;;;;;;;8.35;5.90;;;;;;;-1.56;95.42;102730.84;6241548;23;20004;-87
2023/04/04 04:06:34;;;;;;;7.22;5.53;;;;;;;-1.61;96.11;102728.09;6214877;23;20071;-87
2023/04/04 04:09:00;;;;;;;7.07;5.80;;;;;;;-1.63;97.21;102734.09;6213822;23;20066;-88
2023/04/04 04:11:25;;;;;;;9.15;6.15;;;;;;;-1.66;96.80;102731.44;6240861;23;20011;-87
2023/04/04 04:13:51;;;;;;;8.52;6.55;;;;;;;-1.68;95.77;102735.69;6241040;23;20045;-88
2023/04/04 04:16:16;;;;;;;7.45;5.85;;;;;;;-1.66;96.49;102734.91;6241261;23;20054;-86
2023/04/04 04:18:42;;;;;;;8.23;5.60;;;;;;;-1.73;96.48;102732.06;6213585;23;20004;-88
2023/04/04 04:21:08;;;;;;;7.57;5.70;;;;;;;-1.82;95.46;102727.47;6239408;23;20079;-87
2023/04/04 04:23:33;;;;;;;7.60;5.78;;;;;;;-1.80;96.10;102731.00;6242803;23;20004;-87
2023/04/04 04:25:58;;;;;;;7.80;5.85;;;;;;;-1.78;96.60;102731.94;6242835;23;20388;-87
2023/04/04 04:28:24;;;;;;;9.27;6.03;;;;;;;-1.80;97.04;102731.00;6215191;23;20413;-87
2023/04/04 04:30:50;;;;;;;6.95;6.22;;;;;;;-1.78;96.47;102734.56;6250901;23;20095;-88
2023/04/04 04:33:15;;;;;;;8.88;6.20;;;;;;;-1.81;97.03;102730.13;6258102;23;20042;-85
2023/04/04 04:35:40;;;;;;;7.10;6.05;;;;;;;-1.88;96.50;102722.03;6256467;23;20012;-88
2023/04/04 04:38:06;;;;;;;8.75;5.60;;;;;;;-1.86;96.61;102730.81;6256222;23;20020;-89
2023/04/04 04:40:35;;;;;;;9.18;5.93;;;;;;;-1.88;97.12;102735.09;6261392;23;20228;-88
2023/04/04 04:43:01;;;;;;;7.22;5.88;;;;;;;-1.90;97.06;102726.34;6262163;23;20027;-87
2023/04/04 04:45:26;;;;;;;7.70;5.70;;;;;;;-1.93;97.74;102728.84;6255253;23;20008;-87
2023/04/04 04:47:52;;;;;;;12.48;6.53;;;;;;;-1.98;97.71;102727.84;6243855;22;20019;-88
2023/04/04 04:50:17;;;;;;;7.30;5.88;;;;;;;-1.95;97.45;102730.56;6243358;23;20008;-87
2023/04/04 04:52:43;;;;;;;7.05;5.95;;;;;;;-2.02;97.50;102726.84;6240860;23;20075;-86
2023/04/04 04:55:10;;;;;;;7.15;6.45;;;;;;;-2.08;97.36;102719.72;6240072;23;20000;-89
2023/04/04 04:57:35;;;;;;;8.80;6.72;;;;;;;-2.03;98.59;102719.88;6241338;23;20014;-88
2023/04/04 05:00:03;;;;;;;7.63;5.45;;;;;;;-2.01;98.88;102736.44;6240199;23;20079;-89
2023/04/04 05:02:28;;;;;;;8.52;6.40;;;;;;;-2.09;98.29;102732.72;6239136;23;20008;-88
2023/04/04 05:04:54;;;;;;;8.85;6.15;;;;;;;-2.07;97.87;102736.28;6237111;23;20019;-88
2023/04/04 05:07:19;;;;;;;6.97;6.07;;;;;;;-2.03;98.21;102731.19;6238396;23;20000;-87
2023/04/04 05:09:44;;;;;;;7.65;6.32;;;;;;;-2.06;97.90;102746.75;6238151;23;20000;-89
2023/04/04 05:12:10;;;;;;;8.15;6.20;;;;;;;-2.11;97.31;102752.66;6240191;23;20004;-89
2023/04/04 05:14:36;;;;;;;10.00;7.18;;;;;;;-2.10;98.14;102752.69;6239358;23;20433;-88
2023/04/04 05:17:02;;;;;;;8.52;6.90;;;;;;;-2.14;98.35;102763.00;6240310;23;20329;-88
2023/04/04 05:19:27;;;;;;;11.93;7.20;;;;;;;-2.12;98.28;102766.56;6239924;23;20479;-89
2023/04/04 05:21:53;;;;;;;8.85;7.30;;;;;;;-2.13;99.28;102759.53;6239887;23;20004;-88
2023/04/04 05:24:18;;;;;;;11.60;6.97;;;;;;;-2.10;99.43;102757.03;6219628;23;20008;-89
2023/04/04 05:26:43;;;;;;;9.43;6.50;;;;;;;-2.10;98.92;102751.81;6215714;23;20004;-88
2023/04/04 05:29:09;;;;;;;8.55;6.82;;;;;;;-2.08;99.68;102751.03;6247172;23;20048;-88
2023/04/04 05:31:34;;;;;;;8.27;7.10;;;;;;;-2.07;100.00;102749.31;6266692;22;20028;-89
2023/04/04 05:34:06;;;;;;;8.98;7.20;;;;;;;-2.04;100.00;102754.63;6267659;22;20067;-90
2023/04/04 05:36:32;;;;;;;8.70;6.90;;;;;;;-2.01;100.00;102752.09;6265876;22;20266;-86
2023/04/04 05:38:57;;;;;;;10.80;7.22;;;;;;;-1.99;99.55;102749.56;6265540;22;19992;-87
2023/04/04 05:41:22;;;;;;;8.60;6.85;;;;;;;-1.98;99.21;102749.59;6266942;22;20027;-85
2023/04/04 05:43:48;;;;;;;12.68;6.70;;;;;;;-1.98;99.51;102749.59;6250321;22;20008;-85
2023/04/04 05:46:13;;;;;;;9.10;7.20;;;;;;;-1.95;98.92;102757.53;6245234;23;20000;-87
2023/04/04 05:48:38;;;;;;;8.23;6.93;;;;;;;-1.94;98.63;102747.97;6245652;22;20250;-89
2023/04/04 05:51:04;;;;;;;10.00;7.18;;;;;;;-1.90;99.05;102757.66;6246592;23;20011;-87
2023/04/04 05:53:29;;;;;;;11.52;7.30;;;;;;;-1.93;99.45;102757.56;6243799;23;20004;-88
2023/04/04 05:55:54;;;;;;;8.68;7.20;;;;;;;-1.89;98.90;102764.66;6242498;23;20011;-88
2023/04/04 05:58:22;;;;;;;8.82;6.80;;;;;;;-1.92;98.45;102777.59;6240965;23;20054;-89
2023/04/04 06:00:47;;;;;;;11.18;7.22;;;;;;;-1.88;98.39;102782.06;6240628;23;20090;-90
2023/04/04 06:03:13;;;;;;;9.18;7.15;;;;;;;-1.86;98.16;102781.28;6240490;23;20035;-88
2023/04/04 06:05:38;;;;;;;11.23;7.25;;;;;;;-1.80;98.04;102775.38;6239407;23;20012;-89
2023/04/04 06:08:03;;;;;;;9.52;7.13;;;;;;;-1.80;97.80;102777.97;6239603;23;20410;-89
2023/04/04 06:10:28;;;;;;;11.68;7.82;;;;;;;-1.63;97.78;102781.09;6236652;23;20004;-88
2023/04/04 06:12:54;;;;;;;9.13;6.97;;;;;;;-1.51;96.84;102769.28;6238879;23;20012;-88
2023/04/04 06:15:19;;;;;;;8.88;6.53;;;;;;;-1.21;95.85;102781.50;6238718;23;20384;-88
2023/04/04 06:17:45;;;;;;;8.85;7.13;;;;;;;-0.96;95.84;102766.47;6237924;23;20472;-87
2023/04/04 06:20:10;;;;;;;11.18;7.95;;;;;;;-0.73;94.29;102759.28;6210767;23;20008;-88
2023/04/04 06:22:35;;;;;;;11.30;8.35;;;;;;;-0.41;92.79;102757.50;6213348;23;20122;-88
2023/04/04 06:25:01;;;;;;;12.30;8.98;;;;;;;-0.15;91.94;102774.69;6237521;23;20054;-86
2023/04/04 06:27:26;;;;;;;10.70;8.30;;;;;;;0.17;91.30;102772.84;6239327;23;20382;-85
2023/04/04 06:29:52;;;;;;;10.32;7.72;;;;;;;0.44;89.27;102779.53;6210124;23;20012;-85
2023/04/04 06:32:19;;;;;;;15.07;7.25;;;;;;;0.58;87.75;102782.44;6238408;23;20668;-85
2023/04/04 06:34:44;;;;;;;7.38;6.28;;;;;;;0.68;85.37;102779.19;6237811;23;20000;-84
2023/04/04 06:37:09;;;;;;;8.02;6.47;;;;;;;0.88;85.07;102783.09;6236954;23;20023;-85
2023/04/04 06:39:35;;;;;;;9.23;6.60;;;;;;;0.95;84.34;102774.50;6235237;23;20333;-85
2023/04/04 06:42:00;;;;;;;9.77;6.47;;;;;;;1.16;83.35;102783.63;6236436;23;20319;-85
2023/04/04 06:44:26;;;;;;;9.32;6.72;;;;;;;1.51;82.41;102793.91;6236644;23;20004;-83
2023/04/04 06:46:52;;;;;;;8.50;6.65;;;;;;;1.66;80.94;102788.91;6209172;23;20421;-84
2023/04/04 06:49:17;;;;;;;9.07;6.30;;;;;;;1.86;79.27;102802.38;6234997;22;20022;-84
2023/04/04 06:51:43;;;;;;;7.38;6.35;;;;;;;1.98;78.23;102789.44;6236718;23;20477;-83
2023/04/04 06:54:09;;;;;;;8.23;6.20;;;;;;;2.20;76.94;102790.63;6232877;23;20027;-85
2023/04/04 06:56:34;;;;;;;9.15;5.95;;;;;;;2.61;76.91;102787.72;6232135;23;20061;-85
2023/04/04 06:58:59;;;;;;;10.05;6.38;;;;;;;2.82;74.26;102787.09;6233453;23;20008;-84
2023/04/04 07:01:25;;;;;;;9.10;6.20;;;;;;;3.04;72.15;102796.13;6232025;23;20035;-85
2023/04/04 07:03:53;;;;;;;8.10;6.13;;;;;;;3.15;72.25;102808.53;6234884;23;20418;-85
2023/04/04 07:06:21;;;;;;;7.88;5.90;;;;;;;3.44;70.88;102795.69;6213356;23;20015;-85
2023/04/04 07:08:46;;;;;;;9.23;5.95;;;;;;;3.69;70.37;102788.03;6215756;23;20000;-85
2023/04/04 07:11:12;;;;;;;8.45;5.70;;;;;;;3.90;67.54;102796.09;6218536;23;20049;-85
2023/04/04 07:13:37;;;;;;;7.97;5.60;;;;;;;4.16;66.33;102784.88;6247316;23;20031;-86
2023/04/04 07:16:05;;;;;;;7.65;5.78;;;;;;;4.42;66.00;102791.16;6245221;23;20004;-85
2023/04/04 07:18:31;;;;;;;8.43;6.10;;;;;;;4.75;65.28;102792.22;6251232;23;20004;-86
2023/04/04 07:20:57;;;;;;;7.85;6.15;;;;;;;4.99;63.34;102794.97;6242245;23;20015;-86
2023/04/04 07:23:22;;;;;;;8.05;5.95;;;;;;;5.22;62.20;102795.03;6244338;23;19996;-86
2023/04/04 07:25:48;;;;;;;8.30;5.65;;;;;;;5.58;61.93;102789.81;6243736;23;20000;-83
2023/04/04 07:28:13;;;;;;;13.15;6.07;;;;;;;5.78;60.03;102785.41;6240157;23;20008;-85
2023/04/04 07:30:38;;;;;;;9.43;5.97;;;;;;;5.99;59.43;102785.44;6239162;23;20450;-86
2023/04/04 07:33:04;;;;;;;8.75;5.97;;;;;;;6.29;58.47;102780.13;6239210;23;20600;-84
2023/04/04 07:35:29;;;;;;;8.32;5.55;;;;;;;6.51;56.74;102778.28;6245831;23;20047;-84
2023/04/04 07:37:54;;;;;;;9.35;5.30;;;;;;;6.79;55.36;102774.66;6259235;22;19992;-85
2023/04/04 07:40:20;;;;;;;8.20;5.13;;;;;;;7.09;55.30;102770.09;6239220;22;20019;-86
2023/04/04 07:42:49;;;;;;;9.93;5.25;;;;;;;7.35;52.16;102778.75;6239362;23;20011;-84
2023/04/04 07:45:15;;;;;;;7.05;4.80;;;;;;;7.64;51.75;102775.00;6260393;23;20000;-85
2023/04/04 07:47:44;;;;;;;7.45;4.70;;;;;;;7.84;50.40;102765.13;6255665;22;20016;-83
2023/04/04 07:50:13;;;;;;;9.40;4.85;;;;;;;8.21;48.94;102762.13;6249062;23;20392;-83
2023/04/04 07:52:39;;;;;;;8.38;4.40;;;;;;;8.36;47.94;102769.03;6258090;23;20083;-84
2023/04/04 07:55:06;;;;;;;6.13;4.30;;;;;;;8.43;47.27;102770.75;6252335;23;20418;-84
2023/04/04 07:57:32;;;;;;;5.55;4.00;;;;;;;8.63;45.99;102768.75;6258837;23;20007;-83
2023/04/04 07:59:58;;;;;;;5.95;4.15;;;;;;;9.07;46.14;102769.06;6217938;23;20004;-84
2023/04/04 08:02:24;;;;;;;6.93;4.45;;;;;;;9.72;44.93;102762.75;6237526;23;20011;-82
2023/04/04 08:04:49;;;;;;;5.93;3.95;;;;;;;10.13;43.28;102770.94;6238370;23;20332;-83
2023/04/04 08:07:14;;;;;;;5.80;3.78;;;;;;;10.34;42.52;102777.66;6237310;23;20008;-84
2023/04/04 08:09:40;;;;;;;6.55;3.78;;;;;;;10.79;41.46;102773.22;6236186;23;20499;-83
2023/04/04 08:12:06;;;;;;;6.57;4.00;;;;;;;10.81;39.85;102783.81;6237209;23;20537;-83
2023/04/04 08:14:32;;;;;;;5.60;3.30;;;;;;;11.28;39.91;102773.91;6237045;23;20046;-83
2023/04/04 08:16:57;;;;;;;6.60;3.22;;;;;;;11.32;38.27;102783.59;6237063;23;20499;-83
2023/04/04 08:19:22;;;;;;;5.00;2.40;;;;;;;11.41;36.11;102776.28;6236022;23;20591;-83
2023/04/04 08:21:48;;;;;;;5.38;3.28;;;;;;;11.54;36.75;102773.31;6238315;23;20012;-84
2023/04/04 08:24:14;;;;;;;4.47;3.13;;;;;;;11.40;35.69;102766.50;6237810;23;20011;-84
2023/04/04 08:26:39;;;;;;;6.18;3.00;;;;;;;11.51;35.42;102776.03;6239460;23;20011;-84
2023/04/04 08:29:04;;;;;;;3.00;2.45;;;;;;;11.69;35.25;102770.25;6211514;23;20256;-83
2023/04/04 08:31:30;;;;;;;5.65;2.83;;;;;;;11.96;34.19;102774.94;6211268;23;20004;-84
2023/04/04 08:33:55;;;;;;;4.38;2.85;;;;;;;12.21;34.64;102775.16;6238531;23;20004;-84
2023/04/04 08:36:21;;;;;;;4.32;2.85;;;;;;;12.79;33.33;102790.44;6238758;23;20012;-84
2023/04/04 08:38:47;;;;;;;3.47;2.50;;;;;;;12.78;31.83;102786.91;6237990;23;20015;-82
2023/04/04 08:41:14;;;;;;;5.93;3.20;;;;;;;12.76;32.29;102779.88;6239322;23;20302;-84
2023/04/04 08:43:43;;;;;;;4.55;2.97;;;;;;;12.91;31.89;102771.38;6238026;23;20001;-83
2023/04/04 08:46:11;;;;;;;4.22;2.75;;;;;;;13.12;31.54;102765.38;6238602;23;20079;-84
2023/04/04 08:48:40;;;;;;;4.10;2.90;;;;;;;13.27;31.25;102763.19;6236757;22;20127;-85
2023/04/04 08:51:07;;;;;;;4.63;2.58;;;;;;;13.68;30.56;102754.72;6237960;23;20004;-84
2023/04/04 08:53:35;;;;;;;4.13;2.50;;;;;;;14.15;29.25;102759.34;6237908;23;20004;-84
2023/04/04 08:56:01;;;;;;;5.80;2.90;;;;;;;14.99;28.84;102755.38;6239200;23;20011;-84
2023/04/04 08:58:26;;;;;;;6.28;3.15;;;;;;;15.33;28.46;102754.91;6240246;23;20004;-83
2023/04/04 09:00:55;;;;;;;4.22;3.00;;;;;;;15.53;28.67;102749.59;6248559;23;20015;-84
2023/04/04 09:03:26;;;;;;;5.05;2.72;;;;;;;15.68;28.55;102751.69;6251429;23;20084;-81
2023/04/04 09:05:53;;;;;;;5.38;2.75;;;;;;;16.05;28.15;102747.44;6237818;23;20004;-84
2023/04/04 09:08:19;;;;;;;6.43;3.28;;;;;;;16.34;27.14;102751.47;6237332;23;20382;-83
2023/04/04 09:10:45;;;;;;;6.22;3.13;;;;;;;16.39;26.48;102744.09;6237620;23;20007;-83
2023/04/04 09:13:11;;;;;;;5.68;2.97;;;;;;;16.17;25.91;102746.00;6238778;23;20023;-83
2023/04/04 09:15:41;;;;;;;6.15;2.30;;;;;;;16.51;26.07;102750.75;6238891;23;20338;-84
2023/04/04 09:18:06;;;;;;;3.08;2.10;;;;;;;16.37;24.86;102756.72;6240873;23;20057;-83
2023/04/04 09:20:34;;;;;;;4.05;2.15;;;;;;;16.04;25.31;102761.78;6238533;23;20392;-84
2023/04/04 09:23:00;;;;;;;6.07;2.30;;;;;;;15.77;25.15;102749.56;6239547;23;20027;-85
2023/04/04 09:25:25;;;;;;;5.70;2.38;;;;;;;16.26;25.62;102750.97;6211914;23;20450;-82
2023/04/04 09:27:54;;;;;;;3.97;2.60;;;;;;;17.11;25.13;102750.66;6237032;23;19999;-84
2023/04/04 09:30:20;;;;;;;4.35;2.25;;;;;;;17.52;24.12;102754.03;6237753;23;20012;-84
2023/04/04 09:32:46;;;;;;;4.05;2.50;;;;;;;17.70;24.33;102757.59;6238083;23;20322;-82
2023/04/04 09:35:15;;;;;;;6.15;2.72;;;;;;;17.75;23.81;102752.88;6237799;23;19996;-83
2023/04/04 09:37:40;;;;;;;5.05;2.42;;;;;;;17.62;23.26;102749.03;6209856;23;20039;-82
2023/04/04 09:40:09;;;;;;;4.40;2.67;;;;;;;17.46;23.56;102746.22;6237671;23;20011;-83
2023/04/04 09:42:34;;;;;;;3.38;2.22;;;;;;;17.72;23.11;102752.13;6237085;23;20334;-83
2023/04/04 09:45:01;;;;;;;3.70;2.55;;;;;;;17.81;23.39;102754.41;6238947;23;20004;-86
2023/04/04 09:47:27;;;;;;;3.08;2.47;;;;;;;18.46;22.78;102746.50;6211140;22;20537;-84
2023/04/04 09:49:57;;;;;;;7.05;2.47;;;;;;;18.72;22.48;102745.09;6261170;23;20323;-83
2023/04/04 09:52:22;;;;;;;4.40;2.53;;;;;;;19.12;21.90;102732.97;6266217;22;19984;-83
2023/04/04 09:54:58;;;;;;;4.40;2.40;;;;;;;19.44;22.38;102744.59;6239417;23;20004;-82
2023/04/04 09:57:34;;;;;;;5.05;2.28;;;;;;;19.23;22.32;102741.31;6248324;23;20004;-83
2023/04/04 10:00:02;;;;;;;5.28;2.47;;;;;;;18.54;21.30;102747.81;6248790;23;20066;-83
2023/04/04 10:02:30;;;;;;;3.78;2.22;;;;;;;19.98;22.62;102738.72;6247929;23;20003;-83
2023/04/04 10:04:56;;;;;;;4.40;2.50;;;;;;;20.28;20.43;102730.59;6242198;23;20007;-84
2023/04/04 10:07:27;;;;;;;5.47;2.42;;;;;;;20.21;19.69;102738.19;6243438;23;20085;-83
2023/04/04 10:09:53;;;;;;;3.75;2.20;;;;;;;20.62;20.09;102734.78;6259792;23;20062;-82
2023/04/04 10:12:24;;;;;;;3.83;2.40;;;;;;;20.72;20.12;102733.22;6256376;23;20004;-84
2023/04/04 10:14:59;;;;;;;4.82;2.35;;;;;;;20.90;20.17;102717.66;6231599;23;20015;-84
2023/04/04 10:17:36;;;;;;;4.20;2.38;;;;;;;21.67;20.23;102723.41;6245197;23;20008;-84
2023/04/04 10:20:05;;;;;;;4.28;2.20;;;;;;;20.95;18.71;102720.06;6210914;23;20016;-82
2023/04/04 10:22:32;;;;;;;5.22;2.53;;;;;;;21.59;18.82;102722.06;6238138;23;20004;-84
2023/04/04 10:24:58;;;;;;;3.70;2.47;;;;;;;21.57;18.17;102715.00;6237511;23;20024;-83
2023/04/04 10:27:24;;;;;;;4.97;2.72;;;;;;;21.94;18.47;102723.34;6208318;23;20004;-82
2023/04/04 10:29:50;;;;;;;4.00;2.55;;;;;;;22.31;18.56;102724.38;6236746;23;20438;-83
2023/04/04 10:32:32;;;;;;;4.57;2.50;;;;;;;22.81;19.08;102723.44;6237857;23;20022;-82
2023/04/04 10:35:03;;;;;;;4.22;2.30;;;;;;;22.45;18.72;102724.28;6236657;23;20039;-83
2023/04/04 10:37:33;;;;;;;4.20;2.70;;;;;;;23.04;17.93;102720.94;6235275;23;20630;-83
2023/04/04 10:40:14;;;;;;;5.32;2.72;;;;;;;23.45;18.90;102709.66;6236263;23;20016;-83
2023/04/04 10:42:42;;;;;;;4.82;2.53;;;;;;;23.18;17.36;102712.59;6235963;23;20004;-84
2023/04/04 10:45:09;;;;;;;5.93;3.45;;;;;;;23.17;17.79;102712.72;6236490;23;20007;-83
2023/04/04 10:47:36;;;;;;;3.05;2.38;;;;;;;22.70;18.01;102717.03;6235883;22;20039;-83
2023/04/04 10:50:06;;;;;;;4.85;2.65;;;;;;;22.79;17.40;102703.69;6237270;23;20053;-83
2023/04/04 10:52:32;;;;;;;3.70;2.58;;;;;;;23.98;18.96;102699.22;6237517;23;20015;-83
2023/04/04 10:55:00;;;;;;;4.10;2.35;;;;;;;23.82;17.75;102702.28;6236501;23;20046;-82
2023/04/04 10:57:27;;;;;;;3.42;2.58;;;;;;;23.69;17.35;102690.63;6234785;23;20024;-84
2023/04/04 11:00:07;;;;;;;4.65;2.90;;;;;;;23.82;18.88;102701.41;6236746;23;20003;-83
2023/04/04 11:02:50;;;;;;;4.50;3.00;;;;;;;24.73;19.20;102690.50;6236725;23;20011;-83
2023/04/04 11:05:33;;;;;;;4.30;2.63;;;;;;;24.34;17.76;102692.72;6236271;23;20330;-83
2023/04/04 11:08:01;;;;;;;3.95;2.42;;;;;;;23.90;17.05;102687.22;6209172;23;20015;-86
2023/04/04 11:10:30;;;;;;;4.20;2.63;;;;;;;23.91;17.03;102687.13;6217504;23;20015;-83
2023/04/04 11:13:03;;;;;;;3.50;2.30;;;;;;;23.82;17.25;102683.22;6245894;23;20004;-83
2023/04/04 11:15:46;;;;;;;5.40;2.80;;;;;;;24.50;17.81;102686.94;6252764;23;20431;-83
2023/04/04 11:18:12;;;;;;;4.68;2.63;;;;;;;24.26;16.13;102678.00;6246408;23;20000;-85
2023/04/04 11:20:44;;;;;;;4.70;2.45;;;;;;;23.95;16.88;102676.84;6237752;23;20004;-83
2023/04/04 11:23:15;;;;;;;4.70;2.22;;;;;;;24.46;16.99;102668.28;6238273;23;20377;-83